sensor_id;sensor_type;location;lat;lon;timestamp;P1;durP1;ratioP1;P2;durP2;ratioP2
10041;SDS011;5061;49.068;12.058;2023-05-21T00:02:16;6.00;;;5.17;;
10041;SDS011;5061;49.068;12.058;2023-05-21T00:05:37;6.37;;;5.63;;
10041;SDS011;5061;49.068;12.058;2023-05-21T00:09:02;5.53;;;5.03;;
10041;SDS011;5061;49.068;12.058;2023-05-21T00:12:23;6.87;;;5.30;;
10041;SDS011;5061;49.068;12.058;2023-05-21T00:15:44;6.57;;;5.57;;
10041;SDS011;5061;49.068;12.058;2023-05-21T00:19:05;7.17;;;6.20;;
10041;SDS011;5061;49.068;12.058;2023-05-21T00:22:27;6.70;;;6.00;;
10041;SDS011;5061;49.068;12.058;2023-05-21T00:25:47;7.93;;;6.47;;
10041;SDS011;5061;49.068;12.058;2023-05-21T00:29:09;6.00;;;5.17;;
10041;SDS011;5061;49.068;12.058;2023-05-21T00:32:30;7.00;;;5.50;;
10041;SDS011;5061;49.068;12.058;2023-05-21T00:35:51;7.70;;;5.87;;
10041;SDS011;5061;49.068;12.058;2023-05-21T00:39:15;7.63;;;5.03;;
10041;SDS011;5061;49.068;12.058;2023-05-21T00:42:36;8.17;;;5.80;;
10041;SDS011;5061;49.068;12.058;2023-05-21T00:46:00;8.03;;;5.57;;
10041;SDS011;5061;49.068;12.058;2023-05-21T00:49:21;8.60;;;6.20;;
10041;SDS011;5061;49.068;12.058;2023-05-21T00:52:43;8.60;;;6.43;;
10041;SDS011;5061;49.068;12.058;2023-05-21T00:56:04;8.10;;;5.90;;
10041;SDS011;5061;49.068;12.058;2023-05-21T00:59:25;8.90;;;6.97;;
10041;SDS011;5061;49.068;12.058;2023-05-21T01:02:46;7.80;;;6.23;;
10041;SDS011;5061;49.068;12.058;2023-05-21T01:06:08;7.00;;;5.63;;
10041;SDS011;5061;49.068;12.058;2023-05-21T01:09:29;8.33;;;6.23;;
10041;SDS011;5061;49.068;12.058;2023-05-21T01:12:49;7.17;;;5.80;;
10041;SDS011;5061;49.068;12.058;2023-05-21T01:16:11;9.03;;;6.43;;
10041;SDS011;5061;49.068;12.058;2023-05-21T01:19:33;6.83;;;5.97;;
10041;SDS011;5061;49.068;12.058;2023-05-21T01:22:54;10.27;;;6.47;;
10041;SDS011;5061;49.068;12.058;2023-05-21T01:26:15;7.73;;;5.20;;
10041;SDS011;5061;49.068;12.058;2023-05-21T01:29:37;7.63;;;5.97;;
10041;SDS011;5061;49.068;12.058;2023-05-21T01:36:44;6.90;;;5.70;;
10041;SDS011;5061;49.068;12.058;2023-05-21T01:40:13;8.20;;;5.93;;
10041;SDS011;5061;49.068;12.058;2023-05-21T01:43:38;7.93;;;5.50;;
10041;SDS011;5061;49.068;12.058;2023-05-21T01:47:03;7.23;;;5.90;;
10041;SDS011;5061;49.068;12.058;2023-05-21T01:50:24;9.07;;;6.87;;
10041;SDS011;5061;49.068;12.058;2023-05-21T01:53:46;7.63;;;5.30;;
10041;SDS011;5061;49.068;12.058;2023-05-21T01:57:07;6.20;;;5.30;;
10041;SDS011;5061;49.068;12.058;2023-05-21T02:00:27;5.83;;;4.80;;
10041;SDS011;5061;49.068;12.058;2023-05-21T02:03:48;5.70;;;5.10;;
10041;SDS011;5061;49.068;12.058;2023-05-21T02:07:08;4.97;;;4.50;;
10041;SDS011;5061;49.068;12.058;2023-05-21T02:10:29;6.17;;;5.23;;
10041;SDS011;5061;49.068;12.058;2023-05-21T02:13:50;7.37;;;5.17;;
10041;SDS011;5061;49.068;12.058;2023-05-21T02:17:11;7.00;;;5.50;;
10041;SDS011;5061;49.068;12.058;2023-05-21T02:20:31;6.50;;;5.30;;
10041;SDS011;5061;49.068;12.058;2023-05-21T02:23:55;7.80;;;5.37;;
10041;SDS011;5061;49.068;12.058;2023-05-21T02:27:16;7.33;;;5.77;;
10041;SDS011;5061;49.068;12.058;2023-05-21T02:30:36;10.40;;;5.80;;
10041;SDS011;5061;49.068;12.058;2023-05-21T02:37:58;5.73;;;4.60;;
10041;SDS011;5061;49.068;12.058;2023-05-21T02:41:38;4.97;;;4.47;;
10041;SDS011;5061;49.068;12.058;2023-05-21T02:44:58;5.87;;;4.67;;
10041;SDS011;5061;49.068;12.058;2023-05-21T02:48:19;4.73;;;4.23;;
10041;SDS011;5061;49.068;12.058;2023-05-21T02:51:39;5.87;;;4.80;;
10041;SDS011;5061;49.068;12.058;2023-05-21T02:55:00;4.17;;;3.77;;
10041;SDS011;5061;49.068;12.058;2023-05-21T02:58:21;4.80;;;3.80;;
10041;SDS011;5061;49.068;12.058;2023-05-21T03:01:44;4.07;;;3.67;;
10041;SDS011;5061;49.068;12.058;2023-05-21T03:05:04;5.50;;;4.67;;
10041;SDS011;5061;49.068;12.058;2023-05-21T03:08:25;5.03;;;3.77;;
10041;SDS011;5061;49.068;12.058;2023-05-21T03:11:46;4.40;;;4.00;;
10041;SDS011;5061;49.068;12.058;2023-05-21T03:15:07;3.50;;;3.20;;
10041;SDS011;5061;49.068;12.058;2023-05-21T03:18:28;4.70;;;4.00;;
10041;SDS011;5061;49.068;12.058;2023-05-21T03:21:49;4.17;;;3.77;;
10041;SDS011;5061;49.068;12.058;2023-05-21T03:25:10;4.30;;;3.90;;
10041;SDS011;5061;49.068;12.058;2023-05-21T03:28:31;5.47;;;4.43;;
10041;SDS011;5061;49.068;12.058;2023-05-21T03:31:52;6.10;;;4.50;;
10041;SDS011;5061;49.068;12.058;2023-05-21T03:35:13;5.47;;;4.43;;
10041;SDS011;5061;49.068;12.058;2023-05-21T03:38:34;5.63;;;4.80;;
10041;SDS011;5061;49.068;12.058;2023-05-21T03:41:54;6.30;;;5.00;;
10041;SDS011;5061;49.068;12.058;2023-05-21T03:45:15;6.03;;;5.23;;
10041;SDS011;5061;49.068;12.058;2023-05-21T03:48:35;4.50;;;4.00;;
10041;SDS011;5061;49.068;12.058;2023-05-21T03:51:56;6.30;;;4.90;;
10041;SDS011;5061;49.068;12.058;2023-05-21T03:55:17;6.50;;;4.53;;
10041;SDS011;5061;49.068;12.058;2023-05-21T03:58:37;5.97;;;4.77;;
10041;SDS011;5061;49.068;12.058;2023-05-21T04:01:58;4.73;;;4.00;;
10041;SDS011;5061;49.068;12.058;2023-05-21T04:05:19;5.97;;;4.63;;
10041;SDS011;5061;49.068;12.058;2023-05-21T04:08:40;6.10;;;4.87;;
10041;SDS011;5061;49.068;12.058;2023-05-21T04:12:01;5.07;;;4.50;;
10041;SDS011;5061;49.068;12.058;2023-05-21T04:15:22;10.10;;;4.60;;
10041;SDS011;5061;49.068;12.058;2023-05-21T04:18:44;5.80;;;5.03;;
10041;SDS011;5061;49.068;12.058;2023-05-21T04:22:05;6.43;;;4.90;;
10041;SDS011;5061;49.068;12.058;2023-05-21T04:25:25;5.53;;;4.83;;
10041;SDS011;5061;49.068;12.058;2023-05-21T04:28:46;6.63;;;5.20;;
10041;SDS011;5061;49.068;12.058;2023-05-21T04:32:07;6.10;;;4.47;;
10041;SDS011;5061;49.068;12.058;2023-05-21T04:35:28;6.70;;;4.87;;
10041;SDS011;5061;49.068;12.058;2023-05-21T04:38:48;5.70;;;4.90;;
10041;SDS011;5061;49.068;12.058;2023-05-21T04:42:09;5.90;;;5.10;;
10041;SDS011;5061;49.068;12.058;2023-05-21T04:45:30;6.53;;;5.13;;
10041;SDS011;5061;49.068;12.058;2023-05-21T04:48:51;9.57;;;5.73;;
10041;SDS011;5061;49.068;12.058;2023-05-21T04:52:13;7.83;;;5.83;;
10041;SDS011;5061;49.068;12.058;2023-05-21T04:55:34;7.93;;;6.30;;
10041;SDS011;5061;49.068;12.058;2023-05-21T04:58:59;5.20;;;4.70;;
10041;SDS011;5061;49.068;12.058;2023-05-21T05:02:19;6.13;;;5.30;;
10041;SDS011;5061;49.068;12.058;2023-05-21T05:05:40;6.67;;;4.97;;
10041;SDS011;5061;49.068;12.058;2023-05-21T05:09:01;5.33;;;4.83;;
10041;SDS011;5061;49.068;12.058;2023-05-21T05:12:21;6.20;;;5.37;;
10041;SDS011;5061;49.068;12.058;2023-05-21T05:15:42;7.87;;;6.00;;
10041;SDS011;5061;49.068;12.058;2023-05-21T05:19:02;8.60;;;6.73;;
10041;SDS011;5061;49.068;12.058;2023-05-21T05:22:23;8.60;;;7.17;;
10041;SDS011;5061;49.068;12.058;2023-05-21T05:25:44;7.40;;;6.50;;
10041;SDS011;5061;49.068;12.058;2023-05-21T05:29:05;8.60;;;7.17;;
10041;SDS011;5061;49.068;12.058;2023-05-21T05:32:25;9.07;;;7.60;;
10041;SDS011;5061;49.068;12.058;2023-05-21T05:35:46;10.47;;;8.30;;
10041;SDS011;5061;49.068;12.058;2023-05-21T05:39:07;10.00;;;7.40;;
10041;SDS011;5061;49.068;12.058;2023-05-21T05:42:27;12.33;;;9.20;;
10041;SDS011;5061;49.068;12.058;2023-05-21T05:45:48;12.10;;;7.80;;
10041;SDS011;5061;49.068;12.058;2023-05-21T05:49:08;10.87;;;7.97;;
10041;SDS011;5061;49.068;12.058;2023-05-21T05:52:29;9.50;;;7.80;;
10041;SDS011;5061;49.068;12.058;2023-05-21T05:55:50;8.70;;;7.70;;
10041;SDS011;5061;49.068;12.058;2023-05-21T05:59:10;8.87;;;7.10;;
10041;SDS011;5061;49.068;12.058;2023-05-21T06:02:31;7.80;;;7.00;;
10041;SDS011;5061;49.068;12.058;2023-05-21T06:05:51;9.77;;;8.00;;
10041;SDS011;5061;49.068;12.058;2023-05-21T06:09:12;8.17;;;7.30;;
10041;SDS011;5061;49.068;12.058;2023-05-21T06:12:33;10.90;;;7.70;;
10041;SDS011;5061;49.068;12.058;2023-05-21T06:15:54;10.97;;;7.93;;
10041;SDS011;5061;49.068;12.058;2023-05-21T06:19:14;9.03;;;7.67;;
10041;SDS011;5061;49.068;12.058;2023-05-21T06:22:35;9.37;;;6.80;;
10041;SDS011;5061;49.068;12.058;2023-05-21T06:25:56;7.43;;;6.30;;
10041;SDS011;5061;49.068;12.058;2023-05-21T06:29:16;9.90;;;6.97;;
10041;SDS011;5061;49.068;12.058;2023-05-21T06:32:37;9.30;;;8.00;;
10041;SDS011;5061;49.068;12.058;2023-05-21T06:35:58;8.97;;;7.90;;
10041;SDS011;5061;49.068;12.058;2023-05-21T06:39:18;8.67;;;7.30;;
10041;SDS011;5061;49.068;12.058;2023-05-21T06:42:39;9.00;;;7.57;;
10041;SDS011;5061;49.068;12.058;2023-05-21T06:45:59;10.60;;;8.50;;
10041;SDS011;5061;49.068;12.058;2023-05-21T06:49:20;11.63;;;8.77;;
10041;SDS011;5061;49.068;12.058;2023-05-21T06:52:40;10.20;;;8.13;;
10041;SDS011;5061;49.068;12.058;2023-05-21T06:56:01;8.80;;;7.53;;
10041;SDS011;5061;49.068;12.058;2023-05-21T06:59:22;10.13;;;8.47;;
10041;SDS011;5061;49.068;12.058;2023-05-21T07:02:42;10.23;;;8.10;;
10041;SDS011;5061;49.068;12.058;2023-05-21T07:06:03;9.53;;;8.17;;
10041;SDS011;5061;49.068;12.058;2023-05-21T07:09:24;9.83;;;7.70;;
10041;SDS011;5061;49.068;12.058;2023-05-21T07:12:44;8.20;;;7.37;;
10041;SDS011;5061;49.068;12.058;2023-05-21T07:16:05;9.07;;;7.93;;
10041;SDS011;5061;49.068;12.058;2023-05-21T07:19:26;12.53;;;9.37;;
10041;SDS011;5061;49.068;12.058;2023-05-21T07:22:46;12.30;;;8.57;;
10041;SDS011;5061;49.068;12.058;2023-05-21T07:26:10;8.80;;;7.80;;
10041;SDS011;5061;49.068;12.058;2023-05-21T07:29:32;9.83;;;8.10;;
10041;SDS011;5061;49.068;12.058;2023-05-21T07:33:07;10.60;;;8.60;;
10041;SDS011;5061;49.068;12.058;2023-05-21T07:36:34;10.40;;;8.50;;
10041;SDS011;5061;49.068;12.058;2023-05-21T07:39:56;9.10;;;7.80;;
10041;SDS011;5061;49.068;12.058;2023-05-21T07:43:26;9.53;;;8.20;;
10041;SDS011;5061;49.068;12.058;2023-05-21T07:46:50;10.43;;;8.57;;
10041;SDS011;5061;49.068;12.058;2023-05-21T07:50:12;9.83;;;8.43;;
10041;SDS011;5061;49.068;12.058;2023-05-21T07:53:36;14.73;;;8.37;;
10041;SDS011;5061;49.068;12.058;2023-05-21T07:57:03;8.50;;;7.33;;
10041;SDS011;5061;49.068;12.058;2023-05-21T08:00:25;8.93;;;7.77;;
10041;SDS011;5061;49.068;12.058;2023-05-21T08:03:49;10.87;;;8.30;;
10041;SDS011;5061;49.068;12.058;2023-05-21T08:07:11;10.23;;;8.13;;
10041;SDS011;5061;49.068;12.058;2023-05-21T08:10:41;8.03;;;7.23;;
10041;SDS011;5061;49.068;12.058;2023-05-21T08:14:05;9.67;;;7.20;;
10041;SDS011;5061;49.068;12.058;2023-05-21T08:17:38;10.10;;;8.00;;
10041;SDS011;5061;49.068;12.058;2023-05-21T08:21:02;10.40;;;7.53;;
10041;SDS011;5061;49.068;12.058;2023-05-21T08:24:34;8.63;;;7.53;;
10041;SDS011;5061;49.068;12.058;2023-05-21T08:28:10;9.37;;;7.63;;
10041;SDS011;5061;49.068;12.058;2023-05-21T08:31:38;9.83;;;7.97;;
10041;SDS011;5061;49.068;12.058;2023-05-21T08:35:02;10.93;;;6.87;;
10041;SDS011;5061;49.068;12.058;2023-05-21T08:38:27;9.47;;;7.77;;
10041;SDS011;5061;49.068;12.058;2023-05-21T08:41:48;8.80;;;7.20;;
10041;SDS011;5061;49.068;12.058;2023-05-21T08:45:21;8.33;;;7.30;;
10041;SDS011;5061;49.068;12.058;2023-05-21T08:48:43;8.50;;;7.20;;
10041;SDS011;5061;49.068;12.058;2023-05-21T08:52:07;8.27;;;6.90;;
10041;SDS011;5061;49.068;12.058;2023-05-21T08:55:35;10.90;;;7.40;;
10041;SDS011;5061;49.068;12.058;2023-05-21T08:59:02;9.13;;;7.53;;
10041;SDS011;5061;49.068;12.058;2023-05-21T09:02:24;8.93;;;7.03;;
10041;SDS011;5061;49.068;12.058;2023-05-21T09:05:57;8.50;;;6.87;;
10041;SDS011;5061;49.068;12.058;2023-05-21T09:09:24;6.80;;;6.10;;
10041;SDS011;5061;49.068;12.058;2023-05-21T09:13:07;9.80;;;7.73;;
10041;SDS011;5061;49.068;12.058;2023-05-21T09:16:34;9.37;;;6.70;;
10041;SDS011;5061;49.068;12.058;2023-05-21T09:20:05;7.03;;;6.10;;
10041;SDS011;5061;49.068;12.058;2023-05-21T09:23:41;7.43;;;6.17;;
10041;SDS011;5061;49.068;12.058;2023-05-21T09:27:05;7.60;;;6.73;;
10041;SDS011;5061;49.068;12.058;2023-05-21T09:30:27;8.30;;;6.97;;
10041;SDS011;5061;49.068;12.058;2023-05-21T09:33:48;10.00;;;6.90;;
10041;SDS011;5061;49.068;12.058;2023-05-21T09:37:09;7.37;;;6.57;;
10041;SDS011;5061;49.068;12.058;2023-05-21T09:40:42;7.10;;;5.97;;
10041;SDS011;5061;49.068;12.058;2023-05-21T09:44:09;7.87;;;6.57;;
10041;SDS011;5061;49.068;12.058;2023-05-21T09:47:32;7.40;;;5.73;;
10041;SDS011;5061;49.068;12.058;2023-05-21T09:51:20;5.83;;;5.23;;
10041;SDS011;5061;49.068;12.058;2023-05-21T09:54:39;6.90;;;6.00;;
10041;SDS011;5061;49.068;12.058;2023-05-21T09:58:04;6.63;;;5.80;;
10041;SDS011;5061;49.068;12.058;2023-05-21T10:01:31;6.93;;;6.20;;
10041;SDS011;5061;49.068;12.058;2023-05-21T10:04:53;8.03;;;6.77;;
10041;SDS011;5061;49.068;12.058;2023-05-21T10:08:16;6.77;;;5.70;;
10041;SDS011;5061;49.068;12.058;2023-05-21T10:11:44;7.07;;;6.13;;
10041;SDS011;5061;49.068;12.058;2023-05-21T10:15:11;7.43;;;5.70;;
10041;SDS011;5061;49.068;12.058;2023-05-21T10:18:35;7.07;;;6.10;;
10041;SDS011;5061;49.068;12.058;2023-05-21T10:21:59;10.30;;;6.10;;
10041;SDS011;5061;49.068;12.058;2023-05-21T10:25:29;7.03;;;5.63;;
10041;SDS011;5061;49.068;12.058;2023-05-21T10:29:00;6.80;;;5.30;;
10041;SDS011;5061;49.068;12.058;2023-05-21T10:32:22;8.13;;;5.70;;
10041;SDS011;5061;49.068;12.058;2023-05-21T10:35:55;6.27;;;4.87;;
10041;SDS011;5061;49.068;12.058;2023-05-21T10:39:18;5.10;;;4.60;;
10041;SDS011;5061;49.068;12.058;2023-05-21T10:58:35;6.93;;;5.37;;
10041;SDS011;5061;49.068;12.058;2023-05-21T11:02:20;9.20;;;6.43;;
10041;SDS011;5061;49.068;12.058;2023-05-21T11:05:55;6.30;;;5.70;;
10041;SDS011;5061;49.068;12.058;2023-05-21T11:09:25;6.70;;;5.83;;
10041;SDS011;5061;49.068;12.058;2023-05-21T11:13:09;6.37;;;5.10;;
10041;SDS011;5061;49.068;12.058;2023-05-21T11:16:43;6.63;;;5.47;;
10041;SDS011;5061;49.068;12.058;2023-05-21T11:20:10;5.30;;;4.80;;
10041;SDS011;5061;49.068;12.058;2023-05-21T11:27:39;8.30;;;6.37;;
10041;SDS011;5061;49.068;12.058;2023-05-21T11:35:03;5.67;;;5.07;;
10041;SDS011;5061;49.068;12.058;2023-05-21T11:38:31;7.33;;;4.77;;
10041;SDS011;5061;49.068;12.058;2023-05-21T11:41:57;7.67;;;5.70;;
10041;SDS011;5061;49.068;12.058;2023-05-21T11:45:21;5.80;;;5.20;;
10041;SDS011;5061;49.068;12.058;2023-05-21T11:48:50;7.50;;;5.77;;
10041;SDS011;5061;49.068;12.058;2023-05-21T11:52:14;5.87;;;4.90;;
10041;SDS011;5061;49.068;12.058;2023-05-21T11:55:53;7.03;;;5.73;;
10041;SDS011;5061;49.068;12.058;2023-05-21T11:59:16;6.87;;;5.00;;
10041;SDS011;5061;49.068;12.058;2023-05-21T12:02:37;5.00;;;4.50;;
10041;SDS011;5061;49.068;12.058;2023-05-21T12:06:06;5.50;;;4.90;;
10041;SDS011;5061;49.068;12.058;2023-05-21T12:09:28;4.90;;;4.40;;
10041;SDS011;5061;49.068;12.058;2023-05-21T12:12:49;5.17;;;4.67;;
10041;SDS011;5061;49.068;12.058;2023-05-21T12:16:18;6.50;;;5.23;;
10041;SDS011;5061;49.068;12.058;2023-05-21T12:19:49;5.73;;;5.20;;
10041;SDS011;5061;49.068;12.058;2023-05-21T12:23:18;5.13;;;4.13;;
10041;SDS011;5061;49.068;12.058;2023-05-21T12:26:48;5.10;;;4.60;;
10041;SDS011;5061;49.068;12.058;2023-05-21T12:30:18;7.30;;;5.47;;
10041;SDS011;5061;49.068;12.058;2023-05-21T12:33:43;5.10;;;4.60;;
10041;SDS011;5061;49.068;12.058;2023-05-21T12:37:06;7.00;;;5.80;;
10041;SDS011;5061;49.068;12.058;2023-05-21T12:40:50;6.13;;;5.23;;
10041;SDS011;5061;49.068;12.058;2023-05-21T12:44:14;9.93;;;5.33;;
10041;SDS011;5061;49.068;12.058;2023-05-21T12:47:40;5.73;;;5.03;;
10041;SDS011;5061;49.068;12.058;2023-05-21T12:51:17;5.87;;;4.47;;
10041;SDS011;5061;49.068;12.058;2023-05-21T12:54:40;5.50;;;4.33;;
10041;SDS011;5061;49.068;12.058;2023-05-21T12:58:05;5.10;;;4.60;;
10041;SDS011;5061;49.068;12.058;2023-05-21T13:01:29;5.27;;;4.77;;
10041;SDS011;5061;49.068;12.058;2023-05-21T13:05:32;5.87;;;4.50;;
10041;SDS011;5061;49.068;12.058;2023-05-21T13:08:38;7.10;;;5.00;;
10041;SDS011;5061;49.068;12.058;2023-05-21T13:12:07;5.10;;;4.60;;
10041;SDS011;5061;49.068;12.058;2023-05-21T13:15:35;5.13;;;4.53;;
10041;SDS011;5061;49.068;12.058;2023-05-21T13:19:02;5.40;;;4.90;;
10041;SDS011;5061;49.068;12.058;2023-05-21T13:22:32;5.83;;;5.30;;
10041;SDS011;5061;49.068;12.058;2023-05-21T13:25:57;5.03;;;4.53;;
10041;SDS011;5061;49.068;12.058;2023-05-21T13:29:22;5.33;;;4.47;;
10041;SDS011;5061;49.068;12.058;2023-05-21T13:32:44;4.60;;;4.20;;
10041;SDS011;5061;49.068;12.058;2023-05-21T13:36:06;5.20;;;4.70;;
10041;SDS011;5061;49.068;12.058;2023-05-21T13:39:28;5.37;;;4.43;;
10041;SDS011;5061;49.068;12.058;2023-05-21T13:42:49;5.07;;;4.53;;
10041;SDS011;5061;49.068;12.058;2023-05-21T13:46:10;5.83;;;5.10;;
10041;SDS011;5061;49.068;12.058;2023-05-21T13:49:32;7.43;;;4.50;;
10041;SDS011;5061;49.068;12.058;2023-05-21T13:52:53;6.03;;;4.60;;
10041;SDS011;5061;49.068;12.058;2023-05-21T13:56:17;4.83;;;4.30;;
10041;SDS011;5061;49.068;12.058;2023-05-21T13:59:40;4.40;;;4.00;;
10041;SDS011;5061;49.068;12.058;2023-05-21T14:03:04;5.00;;;3.90;;
10041;SDS011;5061;49.068;12.058;2023-05-21T14:06:26;4.40;;;4.00;;
10041;SDS011;5061;49.068;12.058;2023-05-21T14:09:48;5.70;;;4.43;;
10041;SDS011;5061;49.068;12.058;2023-05-21T14:13:09;5.30;;;4.80;;
10041;SDS011;5061;49.068;12.058;2023-05-21T14:16:33;4.47;;;3.83;;
10041;SDS011;5061;49.068;12.058;2023-05-21T14:20:01;5.30;;;4.80;;
10041;SDS011;5061;49.068;12.058;2023-05-21T14:23:22;6.17;;;4.20;;
10041;SDS011;5061;49.068;12.058;2023-05-21T14:26:43;4.87;;;4.37;;
10041;SDS011;5061;49.068;12.058;2023-05-21T14:30:05;5.33;;;4.47;;
10041;SDS011;5061;49.068;12.058;2023-05-21T14:33:26;8.00;;;4.77;;
10041;SDS011;5061;49.068;12.058;2023-05-21T14:36:47;6.10;;;4.50;;
10041;SDS011;5061;49.068;12.058;2023-05-21T14:40:08;4.47;;;4.07;;
10041;SDS011;5061;49.068;12.058;2023-05-21T14:43:32;4.40;;;4.00;;
10041;SDS011;5061;49.068;12.058;2023-05-21T14:46:53;4.27;;;3.87;;
10041;SDS011;5061;49.068;12.058;2023-05-21T14:50:15;4.00;;;3.60;;
10041;SDS011;5061;49.068;12.058;2023-05-21T14:53:37;4.77;;;4.27;;
10041;SDS011;5061;49.068;12.058;2023-05-21T14:56:59;4.30;;;3.90;;
10041;SDS011;5061;49.068;12.058;2023-05-21T15:00:21;5.23;;;3.87;;
10041;SDS011;5061;49.068;12.058;2023-05-21T15:03:43;4.70;;;3.97;;
10041;SDS011;5061;49.068;12.058;2023-05-21T15:07:07;4.63;;;4.03;;
10041;SDS011;5061;49.068;12.058;2023-05-21T15:10:29;4.43;;;4.00;;
10041;SDS011;5061;49.068;12.058;2023-05-21T15:13:51;4.90;;;4.20;;
10041;SDS011;5061;49.068;12.058;2023-05-21T15:17:13;4.10;;;3.77;;
10041;SDS011;5061;49.068;12.058;2023-05-21T15:20:35;4.33;;;3.93;;
10041;SDS011;5061;49.068;12.058;2023-05-21T15:23:56;5.20;;;4.33;;
10041;SDS011;5061;49.068;12.058;2023-05-21T15:27:18;4.87;;;3.80;;
10041;SDS011;5061;49.068;12.058;2023-05-21T15:30:44;4.40;;;3.80;;
10041;SDS011;5061;49.068;12.058;2023-05-21T15:34:05;4.53;;;3.80;;
10041;SDS011;5061;49.068;12.058;2023-05-21T15:37:28;4.23;;;3.83;;
10041;SDS011;5061;49.068;12.058;2023-05-21T15:40:51;4.30;;;3.90;;
10041;SDS011;5061;49.068;12.058;2023-05-21T15:44:13;6.80;;;4.27;;
10041;SDS011;5061;49.068;12.058;2023-05-21T15:47:36;4.27;;;3.87;;
10041;SDS011;5061;49.068;12.058;2023-05-21T15:51:00;4.47;;;4.07;;
10041;SDS011;5061;49.068;12.058;2023-05-21T15:54:21;4.00;;;3.63;;
10041;SDS011;5061;49.068;12.058;2023-05-21T15:57:43;4.73;;;4.27;;
10041;SDS011;5061;49.068;12.058;2023-05-21T16:01:04;6.70;;;4.30;;
10041;SDS011;5061;49.068;12.058;2023-05-21T16:04:27;4.73;;;4.23;;
10041;SDS011;5061;49.068;12.058;2023-05-21T16:07:48;4.37;;;3.87;;
10041;SDS011;5061;49.068;12.058;2023-05-21T16:11:10;7.03;;;4.10;;
10041;SDS011;5061;49.068;12.058;2023-05-21T16:14:32;5.10;;;3.57;;
10041;SDS011;5061;49.068;12.058;2023-05-21T16:17:54;8.73;;;4.93;;
10041;SDS011;5061;49.068;12.058;2023-05-21T16:21:16;4.80;;;3.77;;
10041;SDS011;5061;49.068;12.058;2023-05-21T16:24:38;4.80;;;4.33;;
10041;SDS011;5061;49.068;12.058;2023-05-21T16:28:01;5.10;;;4.03;;
10041;SDS011;5061;49.068;12.058;2023-05-21T16:31:28;5.80;;;4.47;;
10041;SDS011;5061;49.068;12.058;2023-05-21T16:34:58;6.13;;;4.90;;
10041;SDS011;5061;49.068;12.058;2023-05-21T16:38:24;5.40;;;4.40;;
10041;SDS011;5061;49.068;12.058;2023-05-21T16:41:46;8.77;;;4.37;;
10041;SDS011;5061;49.068;12.058;2023-05-21T16:45:08;17.33;;;5.00;;
10041;SDS011;5061;49.068;12.058;2023-05-21T16:48:34;5.13;;;4.40;;
10041;SDS011;5061;49.068;12.058;2023-05-21T16:51:58;3.77;;;3.40;;
10041;SDS011;5061;49.068;12.058;2023-05-21T16:55:20;4.90;;;3.93;;
10041;SDS011;5061;49.068;12.058;2023-05-21T16:58:42;4.50;;;4.10;;
10041;SDS011;5061;49.068;12.058;2023-05-21T17:02:03;7.53;;;3.97;;
10041;SDS011;5061;49.068;12.058;2023-05-21T17:05:25;4.60;;;3.77;;
10041;SDS011;5061;49.068;12.058;2023-05-21T17:08:46;5.10;;;4.03;;
10041;SDS011;5061;49.068;12.058;2023-05-21T17:12:08;4.13;;;3.73;;
10041;SDS011;5061;49.068;12.058;2023-05-21T17:15:30;6.83;;;4.50;;
10041;SDS011;5061;49.068;12.058;2023-05-21T17:18:58;4.33;;;3.80;;
10041;SDS011;5061;49.068;12.058;2023-05-21T17:22:20;4.93;;;3.63;;
10041;SDS011;5061;49.068;12.058;2023-05-21T17:25:42;4.20;;;3.80;;
10041;SDS011;5061;49.068;12.058;2023-05-21T17:29:06;4.50;;;3.87;;
10041;SDS011;5061;49.068;12.058;2023-05-21T17:32:27;4.10;;;3.70;;
10041;SDS011;5061;49.068;12.058;2023-05-21T17:35:49;3.23;;;2.93;;
10041;SDS011;5061;49.068;12.058;2023-05-21T17:39:11;4.07;;;3.57;;
10041;SDS011;5061;49.068;12.058;2023-05-21T17:42:33;3.77;;;3.23;;
10041;SDS011;5061;49.068;12.058;2023-05-21T17:45:55;3.40;;;3.00;;
10041;SDS011;5061;49.068;12.058;2023-05-21T17:49:17;3.87;;;3.47;;
10041;SDS011;5061;49.068;12.058;2023-05-21T17:52:39;2.90;;;2.60;;
10041;SDS011;5061;49.068;12.058;2023-05-21T17:56:04;2.73;;;2.50;;
10041;SDS011;5061;49.068;12.058;2023-05-21T17:59:26;2.90;;;2.60;;
10041;SDS011;5061;49.068;12.058;2023-05-21T18:02:52;3.20;;;2.83;;
10041;SDS011;5061;49.068;12.058;2023-05-21T18:06:18;3.43;;;3.13;;
10041;SDS011;5061;49.068;12.058;2023-05-21T18:09:40;4.00;;;2.80;;
10041;SDS011;5061;49.068;12.058;2023-05-21T18:13:05;4.53;;;3.00;;
10041;SDS011;5061;49.068;12.058;2023-05-21T18:16:27;4.50;;;3.67;;
10041;SDS011;5061;49.068;12.058;2023-05-21T18:19:50;3.23;;;2.93;;
10041;SDS011;5061;49.068;12.058;2023-05-21T18:23:12;3.77;;;2.90;;
10041;SDS011;5061;49.068;12.058;2023-05-21T18:26:34;3.63;;;3.03;;
10041;SDS011;5061;49.068;12.058;2023-05-21T18:29:56;5.63;;;4.13;;
10041;SDS011;5061;49.068;12.058;2023-05-21T18:33:21;4.53;;;4.07;;
10041;SDS011;5061;49.068;12.058;2023-05-21T18:36:47;3.50;;;3.20;;
10041;SDS011;5061;49.068;12.058;2023-05-21T18:40:10;4.10;;;3.60;;
10041;SDS011;5061;49.068;12.058;2023-05-21T18:43:36;3.90;;;3.50;;
10041;SDS011;5061;49.068;12.058;2023-05-21T18:47:04;4.53;;;3.40;;
10041;SDS011;5061;49.068;12.058;2023-05-21T18:50:29;4.90;;;3.13;;
10041;SDS011;5061;49.068;12.058;2023-05-21T18:53:55;3.50;;;3.00;;
10041;SDS011;5061;49.068;12.058;2023-05-21T18:57:17;4.40;;;3.50;;
10041;SDS011;5061;49.068;12.058;2023-05-21T19:00:39;5.20;;;3.97;;
10041;SDS011;5061;49.068;12.058;2023-05-21T19:04:02;3.93;;;3.27;;
10041;SDS011;5061;49.068;12.058;2023-05-21T19:07:24;3.83;;;3.30;;
10041;SDS011;5061;49.068;12.058;2023-05-21T19:10:46;4.33;;;3.73;;
10041;SDS011;5061;49.068;12.058;2023-05-21T19:14:08;3.80;;;2.97;;
10041;SDS011;5061;49.068;12.058;2023-05-21T19:17:33;5.17;;;4.10;;
10041;SDS011;5061;49.068;12.058;2023-05-21T19:20:55;5.67;;;3.77;;
10041;SDS011;5061;49.068;12.058;2023-05-21T19:24:17;6.43;;;2.90;;
10041;SDS011;5061;49.068;12.058;2023-05-21T19:27:39;4.00;;;3.40;;
10041;SDS011;5061;49.068;12.058;2023-05-21T19:31:01;4.10;;;3.70;;
10041;SDS011;5061;49.068;12.058;2023-05-21T19:34:23;5.60;;;4.37;;
10041;SDS011;5061;49.068;12.058;2023-05-21T19:37:45;3.90;;;3.30;;
10041;SDS011;5061;49.068;12.058;2023-05-21T19:41:07;3.70;;;3.30;;
10041;SDS011;5061;49.068;12.058;2023-05-21T19:44:28;3.67;;;3.37;;
10041;SDS011;5061;49.068;12.058;2023-05-21T19:47:50;4.23;;;3.53;;
10041;SDS011;5061;49.068;12.058;2023-05-21T19:51:12;5.27;;;4.03;;
10041;SDS011;5061;49.068;12.058;2023-05-21T19:54:34;4.27;;;3.70;;
10041;SDS011;5061;49.068;12.058;2023-05-21T19:57:56;3.90;;;3.40;;
10041;SDS011;5061;49.068;12.058;2023-05-21T20:01:19;5.40;;;4.20;;
10041;SDS011;5061;49.068;12.058;2023-05-21T20:04:41;4.67;;;3.80;;
10041;SDS011;5061;49.068;12.058;2023-05-21T20:08:03;6.13;;;4.73;;
10041;SDS011;5061;49.068;12.058;2023-05-21T20:11:26;6.10;;;3.93;;
10041;SDS011;5061;49.068;12.058;2023-05-21T20:14:48;5.37;;;4.00;;
10041;SDS011;5061;49.068;12.058;2023-05-21T20:18:09;4.90;;;4.17;;
10041;SDS011;5061;49.068;12.058;2023-05-21T20:21:31;4.40;;;3.87;;
10041;SDS011;5061;49.068;12.058;2023-05-21T20:24:53;5.50;;;3.80;;
10041;SDS011;5061;49.068;12.058;2023-05-21T20:28:14;4.97;;;4.00;;
10041;SDS011;5061;49.068;12.058;2023-05-21T20:31:36;6.37;;;4.00;;
10041;SDS011;5061;49.068;12.058;2023-05-21T20:34:57;4.60;;;3.93;;
10041;SDS011;5061;49.068;12.058;2023-05-21T20:38:19;4.50;;;3.97;;
10041;SDS011;5061;49.068;12.058;2023-05-21T20:41:41;4.83;;;3.73;;
10041;SDS011;5061;49.068;12.058;2023-05-21T20:45:04;5.47;;;4.20;;
10041;SDS011;5061;49.068;12.058;2023-05-21T20:48:25;3.80;;;3.30;;
10041;SDS011;5061;49.068;12.058;2023-05-21T20:51:48;3.90;;;3.50;;
10041;SDS011;5061;49.068;12.058;2023-05-21T20:55:09;4.90;;;3.73;;